createdAt,value
2022-12-04T00:00:26.718Z,66.55
2022-12-04T00:02:53.249Z,66.79
2022-12-04T00:05:19.792Z,67.41
2022-12-04T00:07:46.441Z,66.78
2022-12-04T00:10:12.966Z,66.84
2022-12-04T00:12:39.556Z,67.65
2022-12-04T00:17:55.403Z,67.88
2022-12-04T00:20:22.040Z,67.51
2022-12-04T00:22:48.612Z,68.13
2022-12-04T00:25:15.316Z,66.83
2022-12-04T00:27:41.964Z,67.52
2022-12-04T00:30:11.463Z,67.21
2022-12-04T00:32:37.952Z,67.17
2022-12-04T00:35:07.101Z,68.53
2022-12-04T00:37:34.496Z,67.97
2022-12-04T00:40:01.117Z,68.29
2022-12-04T00:42:27.583Z,68.08
2022-12-04T00:44:54.068Z,68.35
2022-12-04T00:47:23.415Z,67.26
2022-12-04T00:49:50.192Z,67.97
2022-12-04T00:52:18.173Z,68.70
2022-12-04T00:54:49.837Z,67.98
2022-12-04T00:57:16.617Z,67.73
2022-12-04T00:59:43.103Z,67.18
2022-12-04T01:02:11.773Z,66.70
2022-12-04T01:04:38.255Z,67.93
2022-12-04T01:07:05.527Z,67.64
2022-12-04T01:09:33.748Z,67.65
2022-12-04T01:12:00.236Z,66.66
2022-12-04T01:14:26.853Z,67.33
2022-12-04T01:16:53.424Z,68.10
2022-12-04T01:19:20.228Z,67.55
2022-12-04T01:21:46.740Z,67.51
2022-12-04T01:24:13.256Z,68.08
2022-12-04T01:26:41.100Z,67.97
2022-12-04T01:29:07.843Z,67.57
2022-12-04T01:31:34.577Z,66.78
2022-12-04T01:34:01.110Z,65.91
2022-12-04T01:36:28.538Z,66.86
2022-12-04T01:38:55.787Z,66.95
2022-12-04T01:41:25.199Z,66.94
2022-12-04T01:44:15.338Z,66.93
2022-12-04T01:46:43.441Z,67.85
2022-12-04T01:49:13.163Z,66.15
2022-12-04T01:51:41.994Z,66.62
2022-12-04T01:54:12.073Z,67.37
2022-12-04T01:56:41.370Z,67.31
2022-12-04T01:59:09.264Z,66.74
2022-12-04T02:01:42.615Z,66.89
2022-12-04T02:04:09.281Z,66.54
2022-12-04T02:06:35.817Z,68.05
2022-12-04T02:09:03.350Z,66.84
2022-12-04T02:11:38.285Z,67.94
2022-12-04T02:14:20.024Z,68.08
2022-12-04T02:16:56.453Z,67.52
2022-12-04T02:19:55.740Z,66.79
2022-12-04T02:22:36.895Z,67.81
2022-12-04T02:25:10.415Z,68.00
2022-12-04T02:27:59.394Z,67.63
2022-12-04T02:30:28.941Z,68.34
2022-12-04T02:33:02.326Z,68.48
2022-12-04T02:35:33.296Z,69.25
2022-12-04T02:38:06.215Z,68.68
2022-12-04T02:40:39.824Z,68.94
2022-12-04T02:43:13.789Z,69.48
2022-12-04T02:45:45.294Z,68.67
2022-12-04T02:48:16.963Z,69.38
2022-12-04T02:50:46.192Z,68.99
2022-12-04T02:53:16.381Z,69.72
2022-12-04T02:55:48.432Z,68.53
2022-12-04T02:58:25.405Z,69.38
2022-12-04T03:00:55.812Z,68.41
2022-12-04T03:03:24.989Z,69.55
2022-12-04T03:05:57.625Z,68.25
2022-12-04T03:08:29.498Z,69.29
2022-12-04T03:10:59.288Z,69.01
2022-12-04T03:13:32.916Z,68.83
2022-12-04T03:16:03.907Z,67.50
2022-12-04T03:18:34.115Z,68.08
2022-12-04T03:21:03.840Z,69.44
2022-12-04T03:23:34.184Z,69.26
2022-12-04T03:26:04.741Z,70.04
2022-12-04T03:28:41.624Z,68.93
2022-12-04T03:31:09.757Z,69.25
2022-12-04T03:33:42.063Z,69.21
2022-12-04T03:36:16.624Z,69.35
2022-12-04T03:38:49.258Z,68.81
2022-12-04T03:41:24.582Z,69.04
2022-12-04T03:43:59.094Z,68.89
2022-12-04T03:46:31.272Z,69.34
2022-12-04T03:49:04.501Z,68.37
2022-12-04T03:51:36.444Z,69.04
2022-12-04T03:54:07.609Z,67.80
2022-12-04T03:56:37.619Z,67.80
2022-12-04T03:59:09.094Z,68.71
2022-12-04T04:01:40.992Z,68.75
2022-12-04T04:04:12.436Z,68.64
2022-12-04T04:06:44.141Z,68.04
2022-12-04T04:09:15.114Z,68.46
2022-12-04T04:11:47.305Z,68.78
2022-12-04T04:14:21.940Z,68.86
2022-12-04T04:16:52.804Z,69.06
2022-12-04T04:19:21.572Z,68.37
2022-12-04T04:21:50.367Z,69.32
2022-12-04T04:24:28.033Z,69.03
2022-12-04T04:26:55.749Z,70.22
2022-12-04T04:29:23.645Z,69.42
2022-12-04T04:31:59.573Z,69.48
2022-12-04T04:34:37.897Z,70.18
2022-12-04T04:37:11.797Z,69.81
2022-12-04T04:39:44.317Z,69.83
2022-12-04T04:42:17.687Z,70.29
2022-12-04T04:44:51.272Z,69.70
2022-12-04T04:47:24.072Z,69.68
2022-12-04T04:49:52.578Z,69.83
2022-12-04T04:52:22.222Z,69.47
2022-12-04T04:54:48.725Z,68.95
2022-12-04T04:57:26.088Z,69.42
2022-12-04T04:59:54.172Z,68.63
2022-12-04T05:02:20.990Z,69.12
2022-12-04T05:04:47.640Z,69.47
2022-12-04T05:07:14.085Z,68.52
2022-12-04T05:09:41.488Z,69.11
2022-12-04T05:12:09.092Z,68.75
2022-12-04T05:14:35.597Z,68.67
2022-12-04T05:17:10.745Z,68.58
2022-12-04T05:19:39.112Z,67.66
2022-12-04T05:22:05.578Z,68.20
2022-12-04T05:24:32.109Z,67.93
2022-12-04T05:26:58.835Z,67.92
2022-12-04T05:29:25.276Z,67.92
2022-12-04T05:31:51.731Z,67.69
2022-12-04T05:34:19.563Z,67.38
2022-12-04T05:36:46.018Z,68.09
2022-12-04T05:39:13.364Z,68.75
2022-12-04T05:41:39.847Z,68.18
2022-12-04T05:44:06.357Z,68.04
2022-12-04T05:46:32.970Z,68.32
2022-12-04T05:48:59.544Z,68.48
2022-12-04T05:51:27.550Z,68.26
2022-12-04T05:53:54.459Z,67.98
2022-12-04T05:56:20.992Z,67.61
2022-12-04T05:58:47.651Z,68.20
2022-12-04T06:01:17.732Z,69.16
2022-12-04T06:03:44.528Z,69.02
2022-12-04T06:06:17.503Z,68.80
2022-12-04T06:08:50.348Z,68.77
2022-12-04T06:11:19.325Z,67.91
2022-12-04T06:13:46.542Z,67.53
2022-12-04T06:16:14.619Z,68.88
2022-12-04T06:18:41.598Z,68.64
2022-12-04T06:21:08.920Z,67.50
2022-12-04T06:23:35.883Z,68.82
2022-12-04T06:26:07.068Z,67.97
2022-12-04T06:28:34.725Z,67.26
2022-12-04T06:31:02.010Z,66.98
2022-12-04T06:33:28.751Z,66.72
2022-12-04T06:35:58.716Z,66.33
2022-12-04T06:38:25.391Z,65.95
2022-12-04T06:40:51.857Z,65.23
2022-12-04T06:43:19.669Z,65.95
2022-12-04T06:45:46.298Z,65.26
2022-12-04T06:48:12.809Z,65.27
2022-12-04T06:50:39.426Z,66.11
2022-12-04T06:53:08.464Z,66.25
2022-12-04T06:55:35.273Z,65.46
2022-12-04T06:58:01.817Z,65.27
2022-12-04T07:00:29.639Z,65.29
2022-12-04T07:02:56.243Z,64.56
2022-12-04T07:05:22.698Z,64.66
2022-12-04T07:07:49.189Z,64.53
2022-12-04T07:10:16.054Z,64.52
2022-12-04T07:12:42.674Z,64.43
2022-12-04T07:15:10.229Z,65.23
2022-12-04T07:17:38.046Z,64.13
2022-12-04T07:20:05.725Z,64.70
2022-12-04T07:22:35.199Z,64.71
2022-12-04T07:25:01.821Z,64.44
2022-12-04T07:27:31.702Z,64.59
2022-12-04T07:29:58.582Z,64.05
2022-12-04T07:32:25.103Z,63.42
2022-12-04T07:34:52.973Z,63.46
2022-12-04T07:37:19.505Z,63.53
2022-12-04T07:39:45.959Z,63.31
2022-12-04T07:42:12.576Z,63.37
2022-12-04T07:44:39.008Z,63.09
2022-12-04T07:47:05.627Z,62.03
2022-12-04T07:49:32.168Z,62.13
2022-12-04T07:52:00.299Z,62.10
2022-12-04T07:54:26.761Z,61.53
2022-12-04T07:56:53.253Z,61.82
2022-12-04T07:59:19.770Z,61.38
2022-12-04T08:01:46.308Z,60.75
2022-12-04T08:04:12.957Z,62.08
2022-12-04T08:06:39.856Z,61.50
2022-12-04T08:09:10.223Z,61.54
2022-12-04T08:11:37.394Z,61.46
2022-12-04T08:14:05.575Z,61.90
2022-12-04T08:16:35.215Z,61.60
2022-12-04T08:19:01.779Z,61.57
2022-12-04T08:21:31.239Z,61.09
2022-12-04T08:23:59.751Z,60.84
2022-12-04T08:26:31.983Z,61.07
2022-12-04T08:29:00.799Z,60.42
2022-12-04T08:31:29.570Z,60.03
2022-12-04T08:33:58.535Z,61.46
2022-12-04T08:36:25.516Z,61.16
2022-12-04T08:38:52.210Z,61.07
2022-12-04T08:41:20.194Z,61.20
2022-12-04T08:43:51.162Z,60.91
2022-12-04T08:46:18.724Z,61.11
2022-12-04T08:48:46.462Z,60.53
2022-12-04T08:51:14.865Z,60.62
2022-12-04T08:53:41.588Z,60.01
2022-12-04T08:56:08.613Z,60.37
2022-12-04T08:58:35.123Z,59.87
2022-12-04T09:01:07.716Z,59.15
2022-12-04T09:03:34.696Z,58.61
2022-12-04T09:06:02.578Z,58.72
2022-12-04T09:08:29.331Z,58.40
2022-12-04T09:11:01.838Z,57.99
2022-12-04T09:13:28.359Z,58.25
2022-12-04T09:15:55.042Z,58.56
2022-12-04T09:18:22.933Z,58.82
2022-12-04T09:20:59.054Z,58.38
2022-12-04T09:23:26.299Z,58.04
2022-12-04T09:25:52.813Z,58.69
2022-12-04T09:28:19.672Z,58.78
2022-12-04T09:30:55.467Z,59.89
2022-12-04T09:33:23.352Z,58.59
2022-12-04T09:35:50.165Z,58.32
2022-12-04T09:38:16.647Z,59.89
2022-12-04T09:40:50.532Z,58.58
2022-12-04T09:43:28.159Z,58.19
2022-12-04T09:46:02.342Z,57.67
2022-12-04T09:48:33.334Z,58.18
2022-12-04T09:51:02.342Z,57.90
2022-12-04T09:56:19.832Z,58.46
2022-12-04T09:58:52.539Z,58.41
2022-12-04T10:01:24.089Z,58.08
2022-12-04T10:03:54.235Z,58.13
2022-12-04T10:06:24.224Z,57.42
2022-12-04T10:08:58.662Z,56.94
2022-12-04T10:11:36.765Z,56.74
2022-12-04T10:14:14.361Z,56.99
2022-12-04T10:16:56.380Z,58.30
2022-12-04T10:19:32.466Z,58.36
2022-12-04T10:22:10.424Z,59.48
2022-12-04T10:24:43.654Z,59.13
2022-12-04T10:27:14.993Z,59.23
2022-12-04T10:29:43.639Z,59.75
2022-12-04T10:32:19.916Z,58.84
2022-12-04T10:34:50.391Z,59.75
2022-12-04T10:37:16.900Z,60.22
2022-12-04T10:39:50.168Z,60.03
2022-12-04T10:42:26.456Z,58.91
2022-12-04T10:44:53.205Z,58.17
2022-12-04T10:47:20.703Z,58.08
2022-12-04T10:49:48.924Z,57.46
2022-12-04T10:52:15.690Z,57.38
2022-12-04T10:54:46.126Z,58.68
2022-12-04T10:57:13.165Z,58.83
2022-12-04T10:59:48.082Z,58.14
2022-12-04T11:02:20.934Z,58.04
2022-12-04T11:04:55.445Z,57.68
2022-12-04T11:07:24.432Z,57.55
2022-12-04T11:09:59.524Z,59.09
2022-12-04T11:12:26.266Z,58.43
2022-12-04T11:15:11.817Z,58.40
2022-12-04T11:17:38.332Z,58.74
2022-12-04T11:23:25.911Z,58.17
2022-12-04T11:25:58.223Z,57.47
2022-12-04T11:28:45.564Z,57.85
2022-12-04T11:31:18.519Z,57.35
2022-12-04T11:33:51.443Z,57.79
2022-12-04T11:36:21.602Z,59.21
2022-12-04T11:38:50.774Z,58.75
2022-12-04T11:41:25.961Z,58.12
2022-12-04T11:43:56.700Z,57.92
2022-12-04T11:46:28.866Z,56.58
2022-12-04T11:48:55.537Z,56.95
2022-12-04T11:51:32.541Z,59.07
2022-12-04T11:54:06.969Z,59.29
2022-12-04T11:56:38.551Z,58.92
2022-12-04T11:59:29.075Z,58.93
2022-12-04T12:02:03.109Z,58.01
2022-12-04T12:04:45.613Z,58.15
2022-12-04T12:07:25.700Z,57.52
2022-12-04T12:10:01.592Z,57.99
2022-12-04T12:12:40.801Z,57.50
2022-12-04T12:15:21.887Z,58.70
2022-12-04T12:17:59.150Z,58.56
2022-12-04T12:20:32.879Z,58.42
2022-12-04T12:23:11.619Z,57.71
2022-12-04T12:25:52.294Z,58.03
2022-12-04T12:28:37.720Z,59.28
2022-12-04T12:31:32.169Z,58.53
2022-12-04T12:34:05.024Z,58.09
2022-12-04T12:36:41.289Z,57.99
2022-12-04T12:39:16.108Z,58.95
2022-12-04T12:41:50.279Z,58.09
2022-12-04T12:44:21.494Z,56.96
2022-12-04T12:46:54.195Z,57.50
2022-12-04T12:49:28.587Z,57.14
2022-12-04T12:52:01.294Z,57.81
2022-12-04T12:54:36.669Z,57.48
2022-12-04T12:57:11.292Z,58.68
2022-12-04T12:59:41.950Z,57.46
2022-12-04T13:02:17.877Z,57.94
2022-12-04T13:04:48.863Z,57.42
2022-12-04T13:07:31.760Z,58.59
2022-12-04T13:10:04.645Z,58.95
2022-12-04T13:12:39.488Z,58.30
2022-12-04T13:15:06.942Z,59.06
2022-12-04T13:17:38.843Z,58.27
2022-12-04T13:20:14.080Z,58.18
2022-12-04T13:22:51.714Z,58.15
2022-12-04T13:25:36.375Z,58.94
2022-12-04T13:28:17.576Z,57.85
2022-12-04T13:30:48.513Z,57.82
2022-12-04T13:33:49.830Z,58.52
2022-12-04T13:36:49.222Z,60.65
2022-12-04T13:39:36.115Z,60.56
2022-12-04T13:42:26.147Z,60.29
2022-12-04T13:44:57.096Z,59.35
2022-12-04T13:47:30.953Z,60.68
2022-12-04T13:50:25.186Z,60.88
2022-12-04T13:52:51.722Z,62.30
2022-12-04T13:55:27.198Z,62.71
2022-12-04T13:57:55.773Z,63.04
2022-12-04T14:00:30.945Z,64.09
2022-12-04T14:03:00.032Z,63.01
2022-12-04T14:05:30.501Z,62.58
2022-12-04T14:08:07.178Z,63.58
2022-12-04T14:10:36.293Z,63.08
2022-12-04T14:13:06.039Z,63.33
2022-12-04T14:15:36.991Z,63.56
2022-12-04T14:18:16.105Z,64.60
2022-12-04T14:20:44.413Z,63.66
2022-12-04T14:23:28.084Z,64.18
2022-12-04T14:25:55.568Z,64.43
2022-12-04T14:28:27.710Z,63.87
2022-12-04T14:31:19.865Z,64.05
2022-12-04T14:33:49.481Z,64.06
2022-12-04T14:36:19.282Z,64.97
2022-12-04T14:38:48.839Z,64.13
2022-12-04T14:41:23.802Z,63.98
2022-12-04T14:43:50.558Z,63.74
2022-12-04T14:46:22.554Z,64.58
2022-12-04T14:48:58.977Z,64.84
2022-12-04T14:51:34.329Z,65.08
2022-12-04T14:54:09.217Z,66.61
2022-12-04T14:56:57.882Z,67.54
2022-12-04T14:59:33.701Z,67.01
2022-12-04T15:02:01.795Z,65.43
2022-12-04T15:04:32.645Z,64.78
2022-12-04T15:07:00.617Z,65.59
2022-12-04T15:09:28.367Z,66.38
2022-12-04T15:11:58.414Z,66.17
2022-12-04T15:14:25.121Z,65.95
2022-12-04T15:17:03.598Z,65.41
2022-12-04T15:19:30.186Z,65.46
2022-12-04T15:21:59.567Z,66.13
2022-12-04T15:24:26.158Z,65.71
2022-12-04T15:26:54.256Z,65.68
2022-12-04T15:29:25.515Z,66.31
2022-12-04T15:31:54.757Z,65.60
2022-12-04T15:34:25.740Z,65.94
2022-12-04T15:36:59.644Z,66.50
2022-12-04T15:39:28.248Z,65.47
2022-12-04T15:42:05.125Z,65.67
2022-12-04T15:44:33.125Z,66.22
2022-12-04T15:47:02.404Z,66.34
2022-12-04T15:49:31.397Z,65.11
2022-12-04T15:52:06.801Z,65.43
2022-12-04T15:54:50.375Z,65.37
2022-12-04T15:57:28.737Z,65.90
2022-12-04T15:59:56.735Z,67.33
2022-12-04T16:02:25.534Z,66.63
2022-12-04T16:04:53.752Z,65.86
2022-12-04T16:07:22.488Z,66.30
2022-12-04T16:10:01.094Z,66.52
2022-12-04T16:12:31.779Z,66.79
2022-12-04T16:14:58.635Z,67.63
2022-12-04T16:17:30.325Z,66.08
2022-12-04T16:19:59.297Z,65.52
2022-12-04T16:22:26.562Z,65.71
2022-12-04T16:24:54.017Z,66.53
2022-12-04T16:27:22.830Z,67.60
2022-12-04T16:29:49.463Z,67.14
2022-12-04T16:32:18.353Z,66.44
2022-12-04T16:35:15.193Z,67.32
2022-12-04T16:37:41.779Z,67.77
2022-12-04T16:40:09.819Z,67.50
2022-12-04T16:42:36.357Z,67.56
2022-12-04T16:45:03.307Z,67.49
2022-12-04T16:47:31.938Z,67.78
2022-12-04T16:49:59.754Z,68.09
2022-12-04T16:52:26.324Z,68.89
2022-12-04T16:54:52.783Z,68.29
2022-12-04T16:57:19.319Z,66.81
2022-12-04T16:59:45.887Z,67.54
2022-12-04T17:02:16.038Z,67.87
2022-12-04T17:04:42.754Z,68.77
2022-12-04T17:07:10.809Z,67.59
2022-12-04T17:09:37.338Z,67.03
2022-12-04T17:12:04.261Z,67.46
2022-12-04T17:14:32.481Z,66.72
2022-12-04T17:17:02.321Z,66.11
2022-12-04T17:19:29.360Z,67.39
2022-12-04T17:21:55.874Z,66.03
2022-12-04T17:24:23.754Z,65.78
2022-12-04T17:26:50.263Z,66.10
2022-12-04T17:29:16.780Z,66.30
2022-12-04T17:31:45.423Z,66.44
2022-12-04T17:34:12.020Z,65.85
2022-12-04T17:36:38.521Z,66.52
2022-12-04T17:39:05.038Z,67.62
2022-12-04T17:41:33.061Z,68.09
2022-12-04T17:44:00.063Z,68.94
2022-12-04T17:46:26.794Z,69.97
2022-12-04T17:48:56.339Z,70.10
2022-12-04T17:51:24.296Z,69.65
2022-12-04T17:53:51.364Z,69.43
2022-12-04T17:56:20.433Z,70.04
2022-12-04T17:58:49.782Z,69.15
2022-12-04T18:01:19.438Z,68.70
2022-12-04T18:03:49.702Z,69.61
2022-12-04T18:06:18.548Z,68.19
2022-12-04T18:08:49.754Z,68.49
2022-12-04T18:11:16.930Z,68.60
2022-12-04T18:13:43.526Z,70.38
2022-12-04T18:16:11.971Z,69.31
2022-12-04T18:18:38.844Z,68.94
2022-12-04T18:21:07.791Z,69.06
2022-12-04T18:23:34.297Z,70.66
2022-12-04T18:26:00.921Z,71.18
2022-12-04T18:28:29.722Z,69.29
2022-12-04T18:30:56.353Z,70.57
2022-12-04T18:33:24.500Z,68.84
2022-12-04T18:35:54.338Z,70.20
2022-12-04T18:38:21.084Z,69.83
2022-12-04T18:40:47.624Z,70.12
2022-12-04T18:43:14.170Z,70.37
2022-12-04T18:45:40.809Z,69.96
2022-12-04T18:48:07.432Z,69.01
2022-12-04T18:50:35.561Z,68.68
2022-12-04T18:53:02.157Z,67.79
2022-12-04T18:55:28.720Z,67.45
2022-12-04T18:57:55.270Z,67.30
2022-12-04T19:00:22.120Z,69.54
2022-12-04T19:02:48.679Z,69.00
2022-12-04T19:05:15.433Z,68.75
2022-12-04T19:08:04.860Z,69.23
2022-12-04T19:11:32.211Z,69.35
2022-12-04T19:14:23.882Z,68.83
2022-12-04T19:17:25.232Z,69.38
2022-12-04T19:20:13.150Z,70.87
2022-12-04T19:26:35.199Z,69.87
2022-12-04T19:29:30.335Z,70.48
2022-12-04T19:35:35.980Z,68.65
2022-12-04T19:38:50.663Z,68.24
2022-12-04T19:59:04.147Z,69.82
2022-12-04T20:12:37.971Z,69.88
2022-12-04T20:15:57.413Z,69.42
2022-12-04T20:18:59.238Z,70.06
2022-12-04T20:21:29.983Z,68.59
2022-12-04T20:24:09.218Z,70.19
2022-12-04T20:26:51.779Z,69.44
2022-12-04T20:29:38.522Z,69.90
2022-12-04T20:35:27.322Z,71.52
2022-12-04T20:38:09.243Z,72.48
2022-12-04T20:40:44.665Z,72.64
2022-12-04T20:43:17.721Z,72.98
2022-12-04T20:48:50.537Z,71.87
2022-12-04T20:51:29.095Z,71.53
2022-12-04T20:54:04.057Z,72.38
2022-12-04T20:56:48.281Z,71.73
2022-12-04T20:59:38.263Z,71.69
2022-12-04T21:02:20.771Z,71.21
2022-12-04T21:04:54.053Z,72.38
2022-12-04T21:07:23.948Z,71.98
2022-12-04T21:09:53.837Z,72.27
2022-12-04T21:12:32.984Z,71.56
2022-12-04T21:15:20.336Z,70.98
2022-12-04T21:17:58.890Z,70.79
2022-12-04T21:20:34.138Z,71.68
2022-12-04T21:23:05.232Z,71.36
2022-12-04T21:25:41.074Z,70.84
2022-12-04T21:28:41.775Z,69.83
2022-12-04T21:31:13.141Z,71.61
2022-12-04T21:33:44.398Z,72.72
2022-12-04T21:36:22.192Z,71.72
2022-12-04T21:39:05.630Z,71.23
2022-12-04T21:41:46.854Z,70.45
2022-12-04T21:44:15.625Z,72.93
2022-12-04T21:47:03.136Z,73.67
2022-12-04T21:49:35.064Z,72.73
2022-12-04T21:52:07.548Z,72.89
2022-12-04T21:54:39.325Z,72.77
2022-12-04T21:57:09.776Z,72.84
2022-12-04T21:59:40.996Z,71.61
2022-12-04T22:02:09.443Z,71.92
2022-12-04T22:04:40.897Z,73.35
2022-12-04T22:07:10.348Z,72.40
2022-12-04T22:09:54.758Z,72.70
2022-12-04T22:12:49.053Z,72.13
2022-12-04T22:15:27.999Z,71.15
2022-12-04T22:17:58.460Z,71.41
2022-12-04T22:20:24.986Z,71.69
2022-12-04T22:22:52.796Z,70.24
2022-12-04T22:25:19.303Z,69.90
2022-12-04T22:27:45.784Z,70.47
2022-12-04T22:30:13.205Z,70.57
2022-12-04T22:32:39.696Z,71.16
2022-12-04T22:35:06.603Z,70.77
2022-12-04T22:37:33.344Z,70.07
2022-12-04T22:40:01.352Z,69.81
2022-12-04T22:42:27.895Z,70.05
2022-12-04T22:44:54.375Z,70.39
2022-12-04T22:47:20.840Z,69.83
2022-12-04T22:49:47.384Z,69.06
2022-12-04T22:52:13.969Z,69.61
2022-12-04T22:54:40.455Z,69.49
2022-12-04T22:57:08.566Z,71.08
2022-12-04T22:59:35.103Z,70.85
2022-12-04T23:02:01.809Z,70.69
2022-12-04T23:04:29.062Z,70.65
2022-12-04T23:06:55.671Z,70.13
2022-12-04T23:09:22.158Z,70.90
2022-12-04T23:11:50.645Z,70.33
2022-12-04T23:14:18.531Z,69.54
2022-12-04T23:16:45.109Z,71.67
2022-12-04T23:19:13.935Z,71.06
2022-12-04T23:21:40.996Z,70.35
2022-12-04T23:24:08.021Z,69.96
2022-12-04T23:26:36.269Z,70.47
2022-12-04T23:29:05.336Z,70.59
2022-12-04T23:31:38.228Z,73.01
2022-12-04T23:34:05.698Z,72.23
2022-12-04T23:36:32.563Z,71.96
2022-12-04T23:38:59.253Z,71.91
2022-12-04T23:41:27.539Z,71.59
2022-12-04T23:43:54.827Z,70.37
2022-12-04T23:46:23.590Z,70.59
2022-12-04T23:48:51.695Z,70.64
2022-12-04T23:51:19.892Z,70.18
2022-12-04T23:53:47.426Z,70.27
2022-12-04T23:56:16.257Z,69.80
2022-12-04T23:58:44.266Z,70.75
